sensor_id;sensor_type;location;lat;lon;timestamp;P1;durP1;ratioP1;P2;durP2;ratioP2
17235;SDS011;8734;59.272;17.780;2023-06-14T00:00:05;3.33;;;1.80;;
17235;SDS011;8734;59.272;17.780;2023-06-14T00:02:34;2.53;;;1.70;;
17235;SDS011;8734;59.272;17.780;2023-06-14T00:05:03;6.87;;;2.00;;
17235;SDS011;8734;59.272;17.780;2023-06-14T00:07:35;2.37;;;1.50;;
17235;SDS011;8734;59.272;17.780;2023-06-14T00:10:09;2.23;;;1.73;;
17235;SDS011;8734;59.272;17.780;2023-06-14T00:12:39;3.27;;;1.60;;
17235;SDS011;8734;59.272;17.780;2023-06-14T00:15:07;3.83;;;1.90;;
17235;SDS011;8734;59.272;17.780;2023-06-14T00:17:37;3.03;;;1.83;;
17235;SDS011;8734;59.272;17.780;2023-06-14T00:20:06;5.73;;;1.53;;
17235;SDS011;8734;59.272;17.780;2023-06-14T00:22:37;4.87;;;2.03;;
17235;SDS011;8734;59.272;17.780;2023-06-14T00:25:06;10.73;;;2.33;;
17235;SDS011;8734;59.272;17.780;2023-06-14T00:27:53;4.70;;;1.87;;
17235;SDS011;8734;59.272;17.780;2023-06-14T00:30:21;3.07;;;2.10;;
17235;SDS011;8734;59.272;17.780;2023-06-14T00:32:50;2.63;;;1.70;;
17235;SDS011;8734;59.272;17.780;2023-06-14T00:35:19;2.73;;;1.87;;
17235;SDS011;8734;59.272;17.780;2023-06-14T00:37:49;3.33;;;1.80;;
17235;SDS011;8734;59.272;17.780;2023-06-14T00:40:17;5.33;;;1.90;;
17235;SDS011;8734;59.272;17.780;2023-06-14T00:42:45;3.13;;;1.70;;
17235;SDS011;8734;59.272;17.780;2023-06-14T00:45:14;3.87;;;1.90;;
17235;SDS011;8734;59.272;17.780;2023-06-14T00:47:43;5.30;;;1.70;;
17235;SDS011;8734;59.272;17.780;2023-06-14T00:50:13;3.37;;;2.33;;
17235;SDS011;8734;59.272;17.780;2023-06-14T00:52:42;3.80;;;1.70;;
17235;SDS011;8734;59.272;17.780;2023-06-14T00:55:12;2.47;;;2.00;;
17235;SDS011;8734;59.272;17.780;2023-06-14T00:57:40;5.13;;;1.87;;
17235;SDS011;8734;59.272;17.780;2023-06-14T01:00:10;3.43;;;1.77;;
17235;SDS011;8734;59.272;17.780;2023-06-14T01:02:39;9.27;;;2.00;;
17235;SDS011;8734;59.272;17.780;2023-06-14T01:05:09;6.30;;;1.77;;
17235;SDS011;8734;59.272;17.780;2023-06-14T01:07:43;2.63;;;1.83;;
17235;SDS011;8734;59.272;17.780;2023-06-14T01:10:24;3.57;;;1.80;;
17235;SDS011;8734;59.272;17.780;2023-06-14T01:13:03;3.77;;;2.00;;
17235;SDS011;8734;59.272;17.780;2023-06-14T01:15:36;4.77;;;1.80;;
17235;SDS011;8734;59.272;17.780;2023-06-14T01:18:06;3.47;;;2.07;;
17235;SDS011;8734;59.272;17.780;2023-06-14T01:20:34;3.53;;;2.07;;
17235;SDS011;8734;59.272;17.780;2023-06-14T01:23:06;7.10;;;1.77;;
17235;SDS011;8734;59.272;17.780;2023-06-14T01:25:34;3.97;;;1.93;;
17235;SDS011;8734;59.272;17.780;2023-06-14T01:28:05;3.70;;;1.80;;
17235;SDS011;8734;59.272;17.780;2023-06-14T01:30:37;4.30;;;2.10;;
17235;SDS011;8734;59.272;17.780;2023-06-14T01:33:09;6.80;;;1.97;;
17235;SDS011;8734;59.272;17.780;2023-06-14T01:35:37;3.27;;;2.13;;
17235;SDS011;8734;59.272;17.780;2023-06-14T01:38:07;5.13;;;1.70;;
17235;SDS011;8734;59.272;17.780;2023-06-14T01:40:36;4.37;;;2.37;;
17235;SDS011;8734;59.272;17.780;2023-06-14T01:43:05;2.17;;;1.70;;
17235;SDS011;8734;59.272;17.780;2023-06-14T01:45:34;2.23;;;1.70;;
17235;SDS011;8734;59.272;17.780;2023-06-14T01:48:03;6.43;;;1.97;;
17235;SDS011;8734;59.272;17.780;2023-06-14T01:50:33;3.23;;;1.80;;
17235;SDS011;8734;59.272;17.780;2023-06-14T01:53:02;5.43;;;2.10;;
17235;SDS011;8734;59.272;17.780;2023-06-14T01:55:31;3.83;;;1.90;;
17235;SDS011;8734;59.272;17.780;2023-06-14T01:58:04;3.53;;;2.07;;
17235;SDS011;8734;59.272;17.780;2023-06-14T02:00:32;3.90;;;1.97;;
17235;SDS011;8734;59.272;17.780;2023-06-14T02:03:01;5.00;;;2.23;;
17235;SDS011;8734;59.272;17.780;2023-06-14T02:05:30;3.23;;;1.73;;
17235;SDS011;8734;59.272;17.780;2023-06-14T02:08:01;3.23;;;2.03;;
17235;SDS011;8734;59.272;17.780;2023-06-14T02:10:29;5.97;;;1.90;;
17235;SDS011;8734;59.272;17.780;2023-06-14T02:13:01;2.73;;;1.80;;
17235;SDS011;8734;59.272;17.780;2023-06-14T02:15:29;3.87;;;1.60;;
17235;SDS011;8734;59.272;17.780;2023-06-14T02:18:00;2.93;;;1.70;;
17235;SDS011;8734;59.272;17.780;2023-06-14T02:20:30;7.27;;;2.10;;
17235;SDS011;8734;59.272;17.780;2023-06-14T02:22:58;9.47;;;2.20;;
17235;SDS011;8734;59.272;17.780;2023-06-14T02:25:27;3.17;;;2.13;;
17235;SDS011;8734;59.272;17.780;2023-06-14T02:27:57;4.53;;;2.10;;
17235;SDS011;8734;59.272;17.780;2023-06-14T02:30:26;4.27;;;2.13;;
17235;SDS011;8734;59.272;17.780;2023-06-14T02:32:54;2.90;;;2.00;;
17235;SDS011;8734;59.272;17.780;2023-06-14T02:35:23;5.10;;;2.70;;
17235;SDS011;8734;59.272;17.780;2023-06-14T02:37:53;3.20;;;2.00;;
17235;SDS011;8734;59.272;17.780;2023-06-14T02:40:22;3.37;;;2.10;;
17235;SDS011;8734;59.272;17.780;2023-06-14T02:42:50;5.27;;;2.23;;
17235;SDS011;8734;59.272;17.780;2023-06-14T02:45:20;8.43;;;2.20;;
17235;SDS011;8734;59.272;17.780;2023-06-14T02:47:49;9.83;;;2.20;;
17235;SDS011;8734;59.272;17.780;2023-06-14T02:50:18;8.47;;;2.13;;
17235;SDS011;8734;59.272;17.780;2023-06-14T02:52:47;4.70;;;2.20;;
17235;SDS011;8734;59.272;17.780;2023-06-14T02:55:16;4.43;;;1.97;;
17235;SDS011;8734;59.272;17.780;2023-06-14T02:57:44;2.73;;;1.93;;
17235;SDS011;8734;59.272;17.780;2023-06-14T03:00:14;2.37;;;1.87;;
17235;SDS011;8734;59.272;17.780;2023-06-14T03:02:45;6.70;;;2.23;;
17235;SDS011;8734;59.272;17.780;2023-06-14T03:05:13;6.83;;;2.17;;
17235;SDS011;8734;59.272;17.780;2023-06-14T03:07:42;5.37;;;2.47;;
17235;SDS011;8734;59.272;17.780;2023-06-14T03:10:11;3.07;;;1.93;;
17235;SDS011;8734;59.272;17.780;2023-06-14T03:12:41;4.17;;;2.10;;
17235;SDS011;8734;59.272;17.780;2023-06-14T03:15:09;3.80;;;2.23;;
17235;SDS011;8734;59.272;17.780;2023-06-14T03:17:41;3.57;;;2.40;;
17235;SDS011;8734;59.272;17.780;2023-06-14T03:20:13;8.33;;;2.03;;
17235;SDS011;8734;59.272;17.780;2023-06-14T03:22:43;3.23;;;2.20;;
17235;SDS011;8734;59.272;17.780;2023-06-14T03:25:12;3.37;;;1.90;;
17235;SDS011;8734;59.272;17.780;2023-06-14T03:27:41;3.77;;;1.90;;
17235;SDS011;8734;59.272;17.780;2023-06-14T03:30:10;3.47;;;2.20;;
17235;SDS011;8734;59.272;17.780;2023-06-14T03:32:39;2.80;;;2.00;;
17235;SDS011;8734;59.272;17.780;2023-06-14T03:35:08;4.23;;;2.30;;
17235;SDS011;8734;59.272;17.780;2023-06-14T03:37:45;7.97;;;1.83;;
17235;SDS011;8734;59.272;17.780;2023-06-14T03:40:15;5.07;;;2.30;;
17235;SDS011;8734;59.272;17.780;2023-06-14T03:42:44;2.60;;;1.90;;
17235;SDS011;8734;59.272;17.780;2023-06-14T03:45:12;3.93;;;2.03;;
17235;SDS011;8734;59.272;17.780;2023-06-14T03:47:41;5.80;;;2.13;;
17235;SDS011;8734;59.272;17.780;2023-06-14T03:50:10;4.47;;;2.77;;
17235;SDS011;8734;59.272;17.780;2023-06-14T03:52:39;7.73;;;2.20;;
17235;SDS011;8734;59.272;17.780;2023-06-14T03:55:10;4.83;;;2.23;;
17235;SDS011;8734;59.272;17.780;2023-06-14T03:57:42;7.80;;;2.43;;
17235;SDS011;8734;59.272;17.780;2023-06-14T04:00:11;3.53;;;2.27;;
17235;SDS011;8734;59.272;17.780;2023-06-14T04:02:40;7.93;;;1.83;;
17235;SDS011;8734;59.272;17.780;2023-06-14T04:05:10;7.83;;;2.67;;
17235;SDS011;8734;59.272;17.780;2023-06-14T04:07:39;10.07;;;2.30;;
17235;SDS011;8734;59.272;17.780;2023-06-14T04:10:12;7.63;;;1.93;;
17235;SDS011;8734;59.272;17.780;2023-06-14T04:12:41;6.13;;;2.07;;
17235;SDS011;8734;59.272;17.780;2023-06-14T04:15:10;7.37;;;1.97;;
17235;SDS011;8734;59.272;17.780;2023-06-14T04:17:47;9.73;;;2.07;;
17235;SDS011;8734;59.272;17.780;2023-06-14T04:20:15;7.03;;;2.30;;
17235;SDS011;8734;59.272;17.780;2023-06-14T04:22:43;4.53;;;1.97;;
17235;SDS011;8734;59.272;17.780;2023-06-14T04:25:13;11.17;;;1.93;;
17235;SDS011;8734;59.272;17.780;2023-06-14T04:27:45;3.73;;;1.90;;
17235;SDS011;8734;59.272;17.780;2023-06-14T04:30:14;2.50;;;2.10;;
17235;SDS011;8734;59.272;17.780;2023-06-14T04:32:43;4.97;;;2.17;;
17235;SDS011;8734;59.272;17.780;2023-06-14T04:35:12;3.57;;;2.60;;
17235;SDS011;8734;59.272;17.780;2023-06-14T04:37:41;4.70;;;2.60;;
17235;SDS011;8734;59.272;17.780;2023-06-14T04:40:10;9.03;;;2.10;;
17235;SDS011;8734;59.272;17.780;2023-06-14T04:42:40;4.30;;;2.20;;
17235;SDS011;8734;59.272;17.780;2023-06-14T04:45:11;4.50;;;2.23;;
17235;SDS011;8734;59.272;17.780;2023-06-14T04:47:42;4.03;;;2.47;;
17235;SDS011;8734;59.272;17.780;2023-06-14T04:50:10;3.30;;;2.00;;
17235;SDS011;8734;59.272;17.780;2023-06-14T04:52:39;4.67;;;2.33;;
17235;SDS011;8734;59.272;17.780;2023-06-14T04:55:08;4.63;;;2.10;;
17235;SDS011;8734;59.272;17.780;2023-06-14T04:57:37;3.23;;;2.13;;
17235;SDS011;8734;59.272;17.780;2023-06-14T05:00:10;3.97;;;1.90;;
17235;SDS011;8734;59.272;17.780;2023-06-14T05:02:40;4.17;;;2.40;;
17235;SDS011;8734;59.272;17.780;2023-06-14T05:05:08;8.93;;;2.40;;
17235;SDS011;8734;59.272;17.780;2023-06-14T05:07:37;3.73;;;2.40;;
17235;SDS011;8734;59.272;17.780;2023-06-14T05:10:08;4.40;;;2.30;;
17235;SDS011;8734;59.272;17.780;2023-06-14T05:12:37;6.30;;;2.37;;
17235;SDS011;8734;59.272;17.780;2023-06-14T05:15:06;23.60;;;2.77;;
17235;SDS011;8734;59.272;17.780;2023-06-14T05:17:38;3.23;;;2.03;;
17235;SDS011;8734;59.272;17.780;2023-06-14T05:20:07;6.33;;;2.27;;
17235;SDS011;8734;59.272;17.780;2023-06-14T05:22:37;4.70;;;2.30;;
17235;SDS011;8734;59.272;17.780;2023-06-14T05:25:06;5.27;;;2.10;;
17235;SDS011;8734;59.272;17.780;2023-06-14T05:27:35;3.30;;;2.10;;
17235;SDS011;8734;59.272;17.780;2023-06-14T05:30:04;4.90;;;2.13;;
17235;SDS011;8734;59.272;17.780;2023-06-14T05:32:33;3.17;;;2.00;;
17235;SDS011;8734;59.272;17.780;2023-06-14T05:35:04;5.37;;;2.80;;
17235;SDS011;8734;59.272;17.780;2023-06-14T05:37:33;5.60;;;2.17;;
17235;SDS011;8734;59.272;17.780;2023-06-14T05:40:01;3.23;;;2.30;;
17235;SDS011;8734;59.272;17.780;2023-06-14T05:42:32;2.73;;;1.80;;
17235;SDS011;8734;59.272;17.780;2023-06-14T05:45:00;6.43;;;2.17;;
17235;SDS011;8734;59.272;17.780;2023-06-14T05:47:28;7.80;;;2.50;;
17235;SDS011;8734;59.272;17.780;2023-06-14T05:49:57;3.97;;;2.10;;
17235;SDS011;8734;59.272;17.780;2023-06-14T05:52:26;6.37;;;2.57;;
17235;SDS011;8734;59.272;17.780;2023-06-14T05:54:56;7.10;;;2.13;;
17235;SDS011;8734;59.272;17.780;2023-06-14T05:57:24;6.80;;;3.03;;
17235;SDS011;8734;59.272;17.780;2023-06-14T05:59:52;2.90;;;1.93;;
17235;SDS011;8734;59.272;17.780;2023-06-14T06:02:21;7.07;;;2.40;;
17235;SDS011;8734;59.272;17.780;2023-06-14T06:04:49;6.67;;;2.50;;
17235;SDS011;8734;59.272;17.780;2023-06-14T06:07:17;3.50;;;2.07;;
17235;SDS011;8734;59.272;17.780;2023-06-14T06:09:47;11.27;;;1.93;;
17235;SDS011;8734;59.272;17.780;2023-06-14T06:12:15;3.97;;;2.40;;
17235;SDS011;8734;59.272;17.780;2023-06-14T06:14:44;4.00;;;2.07;;
17235;SDS011;8734;59.272;17.780;2023-06-14T06:17:12;4.47;;;2.30;;
17235;SDS011;8734;59.272;17.780;2023-06-14T06:19:41;3.57;;;2.03;;
17235;SDS011;8734;59.272;17.780;2023-06-14T06:22:09;3.60;;;1.77;;
17235;SDS011;8734;59.272;17.780;2023-06-14T06:24:38;2.60;;;2.10;;
17235;SDS011;8734;59.272;17.780;2023-06-14T06:27:09;8.07;;;2.20;;
17235;SDS011;8734;59.272;17.780;2023-06-14T06:29:41;5.13;;;3.03;;
17235;SDS011;8734;59.272;17.780;2023-06-14T06:32:10;7.17;;;1.93;;
17235;SDS011;8734;59.272;17.780;2023-06-14T06:34:38;2.70;;;1.77;;
17235;SDS011;8734;59.272;17.780;2023-06-14T06:37:07;4.30;;;2.07;;
17235;SDS011;8734;59.272;17.780;2023-06-14T06:39:35;2.83;;;1.90;;
17235;SDS011;8734;59.272;17.780;2023-06-14T06:42:04;6.60;;;1.90;;
17235;SDS011;8734;59.272;17.780;2023-06-14T06:44:34;5.93;;;2.23;;
17235;SDS011;8734;59.272;17.780;2023-06-14T06:47:03;4.47;;;1.70;;
17235;SDS011;8734;59.272;17.780;2023-06-14T06:49:31;9.77;;;1.95;;
17235;SDS011;8734;59.272;17.780;2023-06-14T06:52:00;3.53;;;1.90;;
17235;SDS011;8734;59.272;17.780;2023-06-14T06:54:29;5.90;;;2.00;;
17235;SDS011;8734;59.272;17.780;2023-06-14T06:56:58;3.03;;;1.50;;
17235;SDS011;8734;59.272;17.780;2023-06-14T06:59:28;8.73;;;1.85;;
17235;SDS011;8734;59.272;17.780;2023-06-14T07:01:58;3.63;;;2.00;;
17235;SDS011;8734;59.272;17.780;2023-06-14T07:04:26;6.45;;;2.08;;
17235;SDS011;8734;59.272;17.780;2023-06-14T07:06:55;5.93;;;2.05;;
17235;SDS011;8734;59.272;17.780;2023-06-14T07:09:23;8.40;;;2.22;;
17235;SDS011;8734;59.272;17.780;2023-06-14T07:11:51;5.68;;;2.03;;
17235;SDS011;8734;59.272;17.780;2023-06-14T07:14:20;6.15;;;1.95;;
17235;SDS011;8734;59.272;17.780;2023-06-14T07:16:49;7.03;;;2.03;;
17235;SDS011;8734;59.272;17.780;2023-06-14T07:19:19;3.78;;;1.70;;
17235;SDS011;8734;59.272;17.780;2023-06-14T07:21:47;2.75;;;1.80;;
17235;SDS011;8734;59.272;17.780;2023-06-14T07:24:16;3.53;;;2.13;;
17235;SDS011;8734;59.272;17.780;2023-06-14T07:26:44;4.57;;;1.67;;
17235;SDS011;8734;59.272;17.780;2023-06-14T07:29:13;6.57;;;1.63;;
17235;SDS011;8734;59.272;17.780;2023-06-14T07:31:43;4.43;;;1.90;;
17235;SDS011;8734;59.272;17.780;2023-06-14T07:34:11;6.38;;;2.22;;
17235;SDS011;8734;59.272;17.780;2023-06-14T07:36:41;8.57;;;2.08;;
17235;SDS011;8734;59.272;17.780;2023-06-14T07:39:11;2.92;;;1.70;;
17235;SDS011;8734;59.272;17.780;2023-06-14T07:41:39;8.77;;;1.75;;
17235;SDS011;8734;59.272;17.780;2023-06-14T07:44:07;3.42;;;1.88;;
17235;SDS011;8734;59.272;17.780;2023-06-14T07:46:37;2.47;;;1.67;;
17235;SDS011;8734;59.272;17.780;2023-06-14T07:49:05;2.30;;;1.92;;
17235;SDS011;8734;59.272;17.780;2023-06-14T07:51:34;3.80;;;2.10;;
17235;SDS011;8734;59.272;17.780;2023-06-14T07:54:03;3.65;;;2.05;;
17235;SDS011;8734;59.272;17.780;2023-06-14T07:56:33;4.82;;;2.10;;
17235;SDS011;8734;59.272;17.780;2023-06-14T07:59:03;5.18;;;2.00;;
17235;SDS011;8734;59.272;17.780;2023-06-14T08:01:32;8.45;;;2.20;;
17235;SDS011;8734;59.272;17.780;2023-06-14T08:04:00;5.03;;;2.13;;
17235;SDS011;8734;59.272;17.780;2023-06-14T08:06:29;5.97;;;1.92;;
17235;SDS011;8734;59.272;17.780;2023-06-14T08:08:59;4.63;;;2.33;;
17235;SDS011;8734;59.272;17.780;2023-06-14T08:11:29;4.22;;;2.25;;
17235;SDS011;8734;59.272;17.780;2023-06-14T08:13:59;9.75;;;2.45;;
17235;SDS011;8734;59.272;17.780;2023-06-14T08:16:27;6.55;;;2.60;;
17235;SDS011;8734;59.272;17.780;2023-06-14T08:18:56;7.28;;;2.90;;
17235;SDS011;8734;59.272;17.780;2023-06-14T08:21:24;7.03;;;3.17;;
17235;SDS011;8734;59.272;17.780;2023-06-14T08:23:53;4.40;;;2.65;;
17235;SDS011;8734;59.272;17.780;2023-06-14T08:26:22;10.00;;;2.83;;
17235;SDS011;8734;59.272;17.780;2023-06-14T08:28:52;6.72;;;2.60;;
17235;SDS011;8734;59.272;17.780;2023-06-14T08:31:21;9.77;;;2.75;;
17235;SDS011;8734;59.272;17.780;2023-06-14T08:33:49;7.65;;;2.67;;
17235;SDS011;8734;59.272;17.780;2023-06-14T08:36:18;7.20;;;2.40;;
17235;SDS011;8734;59.272;17.780;2023-06-14T08:38:46;8.90;;;2.78;;
17235;SDS011;8734;59.272;17.780;2023-06-14T08:41:17;3.30;;;2.05;;
17235;SDS011;8734;59.272;17.780;2023-06-14T08:43:48;5.25;;;2.58;;
17235;SDS011;8734;59.272;17.780;2023-06-14T08:46:18;3.50;;;1.95;;
17235;SDS011;8734;59.272;17.780;2023-06-14T08:48:48;5.70;;;2.60;;
17235;SDS011;8734;59.272;17.780;2023-06-14T08:51:18;5.38;;;2.60;;
17235;SDS011;8734;59.272;17.780;2023-06-14T08:53:51;7.55;;;2.38;;
17235;SDS011;8734;59.272;17.780;2023-06-14T08:56:21;7.32;;;3.17;;
17235;SDS011;8734;59.272;17.780;2023-06-14T08:58:52;6.00;;;2.80;;
17235;SDS011;8734;59.272;17.780;2023-06-14T09:01:22;4.82;;;2.72;;
17235;SDS011;8734;59.272;17.780;2023-06-14T09:03:51;8.15;;;2.60;;
17235;SDS011;8734;59.272;17.780;2023-06-14T09:06:21;13.68;;;2.80;;
17235;SDS011;8734;59.272;17.780;2023-06-14T09:08:51;6.10;;;2.40;;
17235;SDS011;8734;59.272;17.780;2023-06-14T09:11:20;4.35;;;2.85;;
17235;SDS011;8734;59.272;17.780;2023-06-14T09:13:48;4.22;;;2.40;;
17235;SDS011;8734;59.272;17.780;2023-06-14T09:16:17;5.78;;;2.72;;
17235;SDS011;8734;59.272;17.780;2023-06-14T09:18:47;4.88;;;2.35;;
17235;SDS011;8734;59.272;17.780;2023-06-14T09:21:16;6.60;;;2.67;;
17235;SDS011;8734;59.272;17.780;2023-06-14T09:23:45;4.28;;;2.33;;
17235;SDS011;8734;59.272;17.780;2023-06-14T09:26:16;5.45;;;2.63;;
17235;SDS011;8734;59.272;17.780;2023-06-14T09:28:46;3.92;;;2.30;;
17235;SDS011;8734;59.272;17.780;2023-06-14T09:31:15;3.63;;;2.10;;
17235;SDS011;8734;59.272;17.780;2023-06-14T09:33:46;5.90;;;2.90;;
17235;SDS011;8734;59.272;17.780;2023-06-14T09:36:17;2.85;;;2.10;;
17235;SDS011;8734;59.272;17.780;2023-06-14T09:38:55;10.63;;;2.70;;
17235;SDS011;8734;59.272;17.780;2023-06-14T09:41:30;8.85;;;2.40;;
17235;SDS011;8734;59.272;17.780;2023-06-14T09:43:59;8.43;;;2.53;;
17235;SDS011;8734;59.272;17.780;2023-06-14T09:46:35;5.28;;;2.50;;
17235;SDS011;8734;59.272;17.780;2023-06-14T09:49:05;4.97;;;2.33;;
17235;SDS011;8734;59.272;17.780;2023-06-14T09:51:34;5.40;;;2.72;;
17235;SDS011;8734;59.272;17.780;2023-06-14T09:54:11;9.27;;;2.80;;
17235;SDS011;8734;59.272;17.780;2023-06-14T09:56:44;3.35;;;2.40;;
17235;SDS011;8734;59.272;17.780;2023-06-14T09:59:14;4.72;;;2.53;;
17235;SDS011;8734;59.272;17.780;2023-06-14T10:01:46;6.88;;;2.47;;
17235;SDS011;8734;59.272;17.780;2023-06-14T10:04:18;8.05;;;2.40;;
17235;SDS011;8734;59.272;17.780;2023-06-14T10:06:49;8.50;;;2.75;;
17235;SDS011;8734;59.272;17.780;2023-06-14T10:09:20;3.97;;;2.53;;
17235;SDS011;8734;59.272;17.780;2023-06-14T10:11:49;6.97;;;2.35;;
17235;SDS011;8734;59.272;17.780;2023-06-14T10:14:18;8.23;;;2.40;;
17235;SDS011;8734;59.272;17.780;2023-06-14T10:16:48;5.00;;;2.45;;
17235;SDS011;8734;59.272;17.780;2023-06-14T10:19:25;4.28;;;2.40;;
17235;SDS011;8734;59.272;17.780;2023-06-14T10:22:02;4.43;;;2.35;;
17235;SDS011;8734;59.272;17.780;2023-06-14T10:24:38;2.75;;;2.22;;
17235;SDS011;8734;59.272;17.780;2023-06-14T10:27:09;3.33;;;2.40;;
17235;SDS011;8734;59.272;17.780;2023-06-14T10:32:31;10.45;;;2.65;;
17235;SDS011;8734;59.272;17.780;2023-06-14T10:35:02;4.95;;;2.67;;
17235;SDS011;8734;59.272;17.780;2023-06-14T10:37:33;8.18;;;2.60;;
17235;SDS011;8734;59.272;17.780;2023-06-14T10:40:02;4.95;;;2.50;;
17235;SDS011;8734;59.272;17.780;2023-06-14T10:42:33;6.22;;;3.05;;
17235;SDS011;8734;59.272;17.780;2023-06-14T10:45:02;4.43;;;2.97;;
17235;SDS011;8734;59.272;17.780;2023-06-14T10:47:31;7.82;;;2.45;;
17235;SDS011;8734;59.272;17.780;2023-06-14T10:50:07;7.95;;;3.00;;
17235;SDS011;8734;59.272;17.780;2023-06-14T10:52:38;6.60;;;2.78;;
17235;SDS011;8734;59.272;17.780;2023-06-14T10:55:12;6.38;;;2.90;;
17235;SDS011;8734;59.272;17.780;2023-06-14T10:57:43;7.07;;;3.08;;
17235;SDS011;8734;59.272;17.780;2023-06-14T11:00:18;6.45;;;2.88;;
17235;SDS011;8734;59.272;17.780;2023-06-14T11:02:56;7.43;;;2.60;;
17235;SDS011;8734;59.272;17.780;2023-06-14T11:06:16;5.03;;;2.85;;
17235;SDS011;8734;59.272;17.780;2023-06-14T11:11:52;3.78;;;2.85;;
17235;SDS011;8734;59.272;17.780;2023-06-14T11:14:23;6.93;;;3.13;;
17235;SDS011;8734;59.272;17.780;2023-06-14T11:16:51;5.45;;;2.50;;
17235;SDS011;8734;59.272;17.780;2023-06-14T11:19:20;10.50;;;3.08;;
17235;SDS011;8734;59.272;17.780;2023-06-14T11:21:51;9.88;;;2.95;;
17235;SDS011;8734;59.272;17.780;2023-06-14T11:24:19;7.97;;;2.78;;
17235;SDS011;8734;59.272;17.780;2023-06-14T11:26:49;4.22;;;2.72;;
17235;SDS011;8734;59.272;17.780;2023-06-14T11:29:19;7.80;;;3.25;;
17235;SDS011;8734;59.272;17.780;2023-06-14T11:31:48;3.55;;;2.50;;
17235;SDS011;8734;59.272;17.780;2023-06-14T11:34:17;4.03;;;2.85;;
17235;SDS011;8734;59.272;17.780;2023-06-14T11:36:46;4.70;;;2.78;;
17235;SDS011;8734;59.272;17.780;2023-06-14T11:39:16;6.43;;;3.15;;
17235;SDS011;8734;59.272;17.780;2023-06-14T11:41:45;3.92;;;2.85;;
17235;SDS011;8734;59.272;17.780;2023-06-14T11:44:13;6.85;;;2.75;;
17235;SDS011;8734;59.272;17.780;2023-06-14T11:46:42;13.18;;;3.20;;
17235;SDS011;8734;59.272;17.780;2023-06-14T11:49:10;7.03;;;3.10;;
17235;SDS011;8734;59.272;17.780;2023-06-14T11:51:38;6.53;;;3.50;;
17235;SDS011;8734;59.272;17.780;2023-06-14T11:54:07;6.50;;;3.58;;
17235;SDS011;8734;59.272;17.780;2023-06-14T11:56:37;10.10;;;3.80;;
17235;SDS011;8734;59.272;17.780;2023-06-14T11:59:06;7.43;;;2.65;;
17235;SDS011;8734;59.272;17.780;2023-06-14T12:01:38;7.72;;;3.10;;
17235;SDS011;8734;59.272;17.780;2023-06-14T12:04:07;5.53;;;3.00;;
17235;SDS011;8734;59.272;17.780;2023-06-14T12:06:35;4.22;;;2.95;;
17235;SDS011;8734;59.272;17.780;2023-06-14T12:09:06;6.35;;;3.33;;
17235;SDS011;8734;59.272;17.780;2023-06-14T12:11:41;4.85;;;2.85;;
17235;SDS011;8734;59.272;17.780;2023-06-14T12:14:10;5.63;;;2.50;;
17235;SDS011;8734;59.272;17.780;2023-06-14T12:16:41;6.22;;;3.13;;
17235;SDS011;8734;59.272;17.780;2023-06-14T12:19:12;5.55;;;3.08;;
17235;SDS011;8734;59.272;17.780;2023-06-14T12:21:41;4.35;;;3.17;;
17235;SDS011;8734;59.272;17.780;2023-06-14T12:24:13;7.55;;;3.10;;
17235;SDS011;8734;59.272;17.780;2023-06-14T12:26:43;4.68;;;2.88;;
17235;SDS011;8734;59.272;17.780;2023-06-14T12:29:12;5.15;;;2.80;;
17235;SDS011;8734;59.272;17.780;2023-06-14T12:31:40;6.15;;;3.00;;
17235;SDS011;8734;59.272;17.780;2023-06-14T12:34:09;3.53;;;2.83;;
17235;SDS011;8734;59.272;17.780;2023-06-14T12:36:37;6.07;;;3.13;;
17235;SDS011;8734;59.272;17.780;2023-06-14T12:39:10;5.43;;;3.17;;
17235;SDS011;8734;59.272;17.780;2023-06-14T12:41:39;4.57;;;2.95;;
17235;SDS011;8734;59.272;17.780;2023-06-14T12:44:10;5.43;;;2.75;;
17235;SDS011;8734;59.272;17.780;2023-06-14T12:46:38;4.93;;;3.33;;
17235;SDS011;8734;59.272;17.780;2023-06-14T12:49:08;4.38;;;2.92;;
17235;SDS011;8734;59.272;17.780;2023-06-14T12:51:37;6.10;;;3.65;;
17235;SDS011;8734;59.272;17.780;2023-06-14T12:54:06;7.05;;;2.80;;
17235;SDS011;8734;59.272;17.780;2023-06-14T12:56:34;8.23;;;3.20;;
17235;SDS011;8734;59.272;17.780;2023-06-14T12:59:03;6.88;;;2.95;;
17235;SDS011;8734;59.272;17.780;2023-06-14T13:01:34;4.90;;;2.90;;
17235;SDS011;8734;59.272;17.780;2023-06-14T13:04:02;15.45;;;2.85;;
17235;SDS011;8734;59.272;17.780;2023-06-14T13:06:31;4.50;;;2.80;;
17235;SDS011;8734;59.272;17.780;2023-06-14T13:09:00;9.70;;;2.83;;
17235;SDS011;8734;59.272;17.780;2023-06-14T13:11:30;15.40;;;3.42;;
17235;SDS011;8734;59.272;17.780;2023-06-14T13:13:58;5.90;;;3.58;;
17235;SDS011;8734;59.272;17.780;2023-06-14T13:16:40;10.82;;;3.22;;
17235;SDS011;8734;59.272;17.780;2023-06-14T13:19:09;6.68;;;2.95;;
17235;SDS011;8734;59.272;17.780;2023-06-14T13:21:37;7.35;;;3.15;;
17235;SDS011;8734;59.272;17.780;2023-06-14T13:24:05;5.22;;;2.75;;
17235;SDS011;8734;59.272;17.780;2023-06-14T13:26:34;8.95;;;2.65;;
17235;SDS011;8734;59.272;17.780;2023-06-14T13:29:02;4.60;;;2.75;;
17235;SDS011;8734;59.272;17.780;2023-06-14T13:31:31;6.22;;;2.95;;
17235;SDS011;8734;59.272;17.780;2023-06-14T13:34:01;4.35;;;2.92;;
17235;SDS011;8734;59.272;17.780;2023-06-14T13:36:31;4.68;;;2.80;;
17235;SDS011;8734;59.272;17.780;2023-06-14T13:38:59;6.72;;;2.80;;
17235;SDS011;8734;59.272;17.780;2023-06-14T13:41:28;3.65;;;2.83;;
17235;SDS011;8734;59.272;17.780;2023-06-14T13:43:58;4.40;;;3.00;;
17235;SDS011;8734;59.272;17.780;2023-06-14T13:46:26;11.05;;;2.90;;
17235;SDS011;8734;59.272;17.780;2023-06-14T13:48:54;6.13;;;2.95;;
17235;SDS011;8734;59.272;17.780;2023-06-14T13:51:25;6.72;;;3.17;;
17235;SDS011;8734;59.272;17.780;2023-06-14T13:53:53;4.95;;;2.95;;
17235;SDS011;8734;59.272;17.780;2023-06-14T13:56:22;8.73;;;3.30;;
17235;SDS011;8734;59.272;17.780;2023-06-14T13:58:50;9.43;;;3.03;;
17235;SDS011;8734;59.272;17.780;2023-06-14T14:01:19;4.22;;;3.03;;
17235;SDS011;8734;59.272;17.780;2023-06-14T14:03:48;4.93;;;2.75;;
17235;SDS011;8734;59.272;17.780;2023-06-14T14:06:16;5.80;;;3.08;;
17235;SDS011;8734;59.272;17.780;2023-06-14T14:08:46;8.18;;;3.60;;
17235;SDS011;8734;59.272;17.780;2023-06-14T14:11:15;10.95;;;3.03;;
17235;SDS011;8734;59.272;17.780;2023-06-14T14:13:43;3.88;;;2.50;;
17235;SDS011;8734;59.272;17.780;2023-06-14T14:16:12;5.75;;;3.03;;
17235;SDS011;8734;59.272;17.780;2023-06-14T14:18:41;6.63;;;2.88;;
17235;SDS011;8734;59.272;17.780;2023-06-14T14:21:10;3.55;;;2.60;;
17235;SDS011;8734;59.272;17.780;2023-06-14T14:23:38;4.47;;;2.95;;
17235;SDS011;8734;59.272;17.780;2023-06-14T14:26:09;4.72;;;3.17;;
17235;SDS011;8734;59.272;17.780;2023-06-14T14:28:37;9.82;;;3.30;;
17235;SDS011;8734;59.272;17.780;2023-06-14T14:31:05;5.93;;;2.83;;
17235;SDS011;8734;59.272;17.780;2023-06-14T14:33:34;8.18;;;3.38;;
17235;SDS011;8734;59.272;17.780;2023-06-14T14:36:02;3.50;;;2.50;;
17235;SDS011;8734;59.272;17.780;2023-06-14T14:38:32;5.50;;;3.03;;
17235;SDS011;8734;59.272;17.780;2023-06-14T14:41:01;3.42;;;2.90;;
17235;SDS011;8734;59.272;17.780;2023-06-14T14:43:30;6.18;;;3.03;;
17235;SDS011;8734;59.272;17.780;2023-06-14T14:45:59;6.60;;;2.90;;
17235;SDS011;8734;59.272;17.780;2023-06-14T14:48:27;4.60;;;2.63;;
17235;SDS011;8734;59.272;17.780;2023-06-14T14:50:56;11.98;;;3.33;;
17235;SDS011;8734;59.272;17.780;2023-06-14T14:53:24;4.88;;;3.15;;
17235;SDS011;8734;59.272;17.780;2023-06-14T14:55:53;10.45;;;3.35;;
17235;SDS011;8734;59.272;17.780;2023-06-14T14:58:21;6.10;;;3.10;;
17235;SDS011;8734;59.272;17.780;2023-06-14T15:00:51;6.82;;;3.05;;
17235;SDS011;8734;59.272;17.780;2023-06-14T15:03:19;5.00;;;2.88;;
17235;SDS011;8734;59.272;17.780;2023-06-14T15:05:48;5.03;;;3.30;;
17235;SDS011;8734;59.272;17.780;2023-06-14T15:08:16;9.68;;;3.55;;